createdAt,value
2016-07-20T00:00:19.382Z,92.47
2016-07-20T00:00:49.406Z,92.86
2016-07-20T00:01:19.415Z,92.47
2016-07-20T00:01:49.426Z,91.8
2016-07-20T00:02:18.736Z,91.99
2016-07-20T00:02:49.456Z,91.9
2016-07-20T00:03:19.471Z,91.99
2016-07-20T00:03:49.492Z,91.9
2016-07-20T00:04:19.502Z,91.71
2016-07-20T00:04:48.807Z,91.8
2016-07-20T00:05:18.828Z,92.19
2016-07-20T00:05:49.551Z,91.71
2016-07-20T00:06:18.871Z,91.71
2016-07-20T00:06:49.593Z,91.8
2016-07-20T00:07:19.610Z,91.9
2016-07-20T00:07:49.607Z,91.9
2016-07-20T00:08:19.630Z,91.61
2016-07-20T00:08:49.638Z,92.19
2016-07-20T00:09:19.677Z,92.47
2016-07-20T00:09:48.971Z,92.67
2016-07-20T00:10:19.696Z,92.76
2016-07-20T00:10:49.708Z,92.86
2016-07-20T00:11:19.715Z,92.47
2016-07-20T00:11:49.735Z,92.47
2016-07-20T00:12:19.051Z,92.76
2016-07-20T00:12:49.053Z,92.76
2016-07-20T00:13:19.782Z,93.01
2016-07-20T00:13:49.084Z,93.19
2016-07-20T00:14:19.819Z,93.01
2016-07-20T00:14:49.824Z,93.05
2016-07-20T00:15:19.838Z,93.05
2016-07-20T00:15:49.858Z,93.34
2016-07-20T00:16:19.890Z,93.34
2016-07-20T00:16:49.896Z,93.05
2016-07-20T00:17:19.903Z,92.09
2016-07-20T00:17:49.914Z,92.76
2016-07-20T00:18:19.934Z,92.76
2016-07-20T00:18:49.945Z,92.67
2016-07-20T00:19:19.966Z,92.67
2016-07-20T00:19:49.983Z,92.76
2016-07-20T00:20:19.296Z,92.47
2016-07-20T00:20:50.004Z,92.76
2016-07-20T00:21:20.027Z,92.38
2016-07-20T00:21:50.038Z,93.05
2016-07-20T00:22:20.053Z,93.05
2016-07-20T00:22:50.070Z,93.15
2016-07-20T00:23:20.102Z,93.63
2016-07-20T00:23:50.101Z,93.34
2016-07-20T00:24:19.413Z,93.01
2016-07-20T00:24:50.131Z,93.29
2016-07-20T00:25:20.144Z,93.49
2016-07-20T00:25:50.160Z,93.49
2016-07-20T00:26:19.468Z,93.96
2016-07-20T00:26:50.187Z,93.58
2016-07-20T00:27:20.215Z,93.49
2016-07-20T00:27:50.228Z,93.39
2016-07-20T00:28:20.237Z,93.73
2016-07-20T00:28:49.545Z,93.05
2016-07-20T00:29:20.269Z,93.24
2016-07-20T00:29:50.283Z,92.96
2016-07-20T00:30:19.592Z,93.24
2016-07-20T00:30:50.313Z,92.47
2016-07-20T00:31:19.612Z,92.86
2016-07-20T00:31:49.635Z,93.15
2016-07-20T00:32:20.360Z,93.05
2016-07-20T00:32:50.385Z,92.86
2016-07-20T00:33:19.683Z,93.34
2016-07-20T00:33:50.412Z,93.01
2016-07-20T00:34:20.427Z,93.49
2016-07-20T00:34:49.724Z,93.49
2016-07-20T00:35:20.446Z,93.44
2016-07-20T00:35:49.761Z,93.39
2016-07-20T00:36:20.486Z,93.1
2016-07-20T00:36:50.496Z,92.62
2016-07-20T00:37:20.514Z,93.29
2016-07-20T00:37:50.521Z,93.19
2016-07-20T00:38:20.551Z,93.68
2016-07-20T00:38:50.583Z,93.87
2016-07-20T00:39:20.574Z,93.19
2016-07-20T00:39:50.584Z,93.1
2016-07-20T00:40:19.901Z,92.91
2016-07-20T00:40:50.625Z,93.49
2016-07-20T00:41:20.643Z,93.39
2016-07-20T00:41:49.935Z,93.49
2016-07-20T00:42:20.657Z,93.05
2016-07-20T00:42:50.684Z,93.19
2016-07-20T00:43:20.696Z,93.58
2016-07-20T00:43:50.715Z,93.63
2016-07-20T00:44:20.021Z,93.1
2016-07-20T00:44:50.744Z,92.57
2016-07-20T00:45:20.754Z,92.91
2016-07-20T00:45:50.061Z,93.19
2016-07-20T00:46:20.785Z,93.91
2016-07-20T00:46:50.088Z,92.81
2016-07-20T00:47:20.824Z,93.01
2016-07-20T00:47:50.840Z,93.68
2016-07-20T00:48:20.846Z,93.49
2016-07-20T00:48:50.879Z,93.01
2016-07-20T00:49:20.883Z,93.29
2016-07-20T00:49:50.891Z,92.67
2016-07-20T00:50:20.908Z,93.15
2016-07-20T00:50:50.925Z,92.91
2016-07-20T00:51:20.939Z,93.05
2016-07-20T00:51:50.951Z,93.01
2016-07-20T00:52:20.974Z,92.81
2016-07-20T00:52:50.281Z,92.91
2016-07-20T00:53:20.999Z,93.01
2016-07-20T00:53:51.023Z,92.91
2016-07-20T00:54:21.028Z,93.49
2016-07-20T00:54:51.044Z,93.49
2016-07-20T00:55:21.054Z,93.29
2016-07-20T00:55:51.077Z,93.49
2016-07-20T00:56:21.103Z,94.35
2016-07-20T00:56:51.108Z,93.77
2016-07-20T00:57:21.126Z,93.49
2016-07-20T00:57:50.434Z,93.87
2016-07-20T00:58:21.158Z,93.87
2016-07-20T00:58:51.169Z,93.96
2016-07-20T00:59:21.195Z,93.96
2016-07-20T00:59:49.777Z,93.68
2016-07-20T01:00:21.210Z,93.49
2016-07-20T01:00:51.232Z,93.58
2016-07-20T01:01:21.246Z,93.68
2016-07-20T01:01:51.259Z,93.87
2016-07-20T01:02:21.275Z,93.87
2016-07-20T01:02:51.287Z,94.06
2016-07-20T01:03:21.314Z,94.26
2016-07-20T01:03:51.329Z,93.77
2016-07-20T01:04:20.627Z,93.77
2016-07-20T01:04:51.350Z,93.87
2016-07-20T01:05:21.361Z,94.06
2016-07-20T01:05:51.381Z,93.68
2016-07-20T01:06:21.395Z,94.26
2016-07-20T01:06:51.405Z,93.87
2016-07-20T01:07:21.424Z,94.16
2016-07-20T01:07:51.455Z,94.26
2016-07-20T01:08:21.448Z,93.96
2016-07-20T01:08:51.479Z,93.77
2016-07-20T01:09:21.486Z,94.54
2016-07-20T01:09:50.791Z,93.87
2016-07-20T01:10:21.516Z,94.06
2016-07-20T01:10:51.526Z,93.77
2016-07-20T01:11:21.551Z,93.77
2016-07-20T01:11:50.855Z,94.06
2016-07-20T01:12:20.870Z,93.39
2016-07-20T01:12:51.590Z,93.96
2016-07-20T01:13:21.610Z,93.77
2016-07-20T01:13:51.635Z,94.21
2016-07-20T01:14:21.634Z,94.54
2016-07-20T01:14:51.649Z,94.4
2016-07-20T01:15:21.668Z,94.49
2016-07-20T01:15:50.975Z,94.73
2016-07-20T01:16:21.697Z,94.49
2016-07-20T01:16:51.725Z,94.98
2016-07-20T01:17:21.735Z,94.49
2016-07-20T01:17:51.743Z,94.21
2016-07-20T01:18:21.052Z,94.49
2016-07-20T01:18:51.781Z,94.78
2016-07-20T01:19:21.788Z,94.98
2016-07-20T01:19:51.809Z,94.78
2016-07-20T01:20:21.819Z,94.78
2016-07-20T01:20:51.834Z,94.54
2016-07-20T01:21:21.851Z,94.35
2016-07-20T01:21:51.887Z,93.77
2016-07-20T01:22:21.885Z,94.06
2016-07-20T01:22:51.904Z,94.64
2016-07-20T01:23:21.204Z,94.73
2016-07-20T01:23:51.931Z,94.73
2016-07-20T01:24:21.947Z,94.4
2016-07-20T01:24:51.253Z,94.54
2016-07-20T01:25:21.272Z,94.54
2016-07-20T01:25:51.980Z,94.45
2016-07-20T01:26:22.011Z,94.45
2016-07-20T01:26:52.027Z,94.06
2016-07-20T01:27:22.042Z,94.35
2016-07-20T01:27:52.046Z,94.16
2016-07-20T01:28:22.066Z,94.06
2016-07-20T01:28:52.077Z,94.16
2016-07-20T01:29:22.091Z,93.87
2016-07-20T01:29:52.107Z,93.96
2016-07-20T01:30:22.134Z,93.77
2016-07-20T01:30:52.133Z,93.58
2016-07-20T01:31:22.155Z,93.68
2016-07-20T01:31:52.173Z,93.68
2016-07-20T01:32:21.479Z,94.06
2016-07-20T01:32:51.488Z,93.58
2016-07-20T01:33:21.502Z,93.77
2016-07-20T01:33:52.233Z,93.96
2016-07-20T01:34:22.247Z,93.73
2016-07-20T01:34:52.263Z,93.96
2016-07-20T01:35:22.274Z,94.59
2016-07-20T01:35:52.288Z,94.31
2016-07-20T01:36:22.307Z,94.49
2016-07-20T01:36:52.325Z,94.69
2016-07-20T01:37:22.341Z,94.49
2016-07-20T01:37:52.352Z,94.78
2016-07-20T01:38:22.368Z,95.26
2016-07-20T01:38:52.388Z,94.88
2016-07-20T01:39:22.398Z,95.36
2016-07-20T01:39:52.417Z,95.36
2016-07-20T01:40:22.428Z,95.36
2016-07-20T01:40:52.438Z,94.88
2016-07-20T01:41:22.464Z,94.59
2016-07-20T01:41:52.477Z,94.69
2016-07-20T01:42:22.491Z,94.78
2016-07-20T01:42:52.495Z,94.49
2016-07-20T01:43:22.518Z,95.45
2016-07-20T01:43:51.823Z,95.36
2016-07-20T01:44:22.547Z,95.07
2016-07-20T01:44:52.571Z,95.84
2016-07-20T01:45:22.584Z,95.17
2016-07-20T01:45:52.598Z,95.17
2016-07-20T01:46:22.610Z,94.88
2016-07-20T01:46:52.627Z,95.17
2016-07-20T01:47:21.939Z,95.45
2016-07-20T01:47:52.650Z,95.26
2016-07-20T01:48:21.960Z,95.36
2016-07-20T01:48:52.697Z,95.26
2016-07-20T01:49:22.699Z,95.17
2016-07-20T01:49:52.708Z,95.36
2016-07-20T01:50:22.024Z,95.45
2016-07-20T01:50:51.339Z,95.45
2016-07-20T01:51:22.760Z,95.45
2016-07-20T01:51:52.777Z,94.98
2016-07-20T01:52:21.371Z,95.26
2016-07-20T01:52:52.801Z,94.78
2016-07-20T01:53:22.822Z,95.45
2016-07-20T01:53:52.128Z,95.07
2016-07-20T01:54:22.853Z,95.26
2016-07-20T01:54:52.867Z,95.26
2016-07-20T01:55:22.880Z,95.45
2016-07-20T01:55:52.912Z,94.69
2016-07-20T01:56:22.209Z,94.64
2016-07-20T01:56:52.918Z,94.73
2016-07-20T01:57:22.939Z,94.35
2016-07-20T01:57:52.964Z,94.88
2016-07-20T01:58:22.967Z,94.73
2016-07-20T01:58:52.998Z,94.49
2016-07-20T01:59:23.004Z,94.73
2016-07-20T01:59:53.012Z,94.69
2016-07-20T02:00:23.028Z,94.64
2016-07-20T02:00:53.045Z,93.77
2016-07-20T02:01:23.067Z,93.96
2016-07-20T02:01:53.073Z,93.58
2016-07-20T02:02:22.388Z,93.58
2016-07-20T02:02:53.111Z,93.58
2016-07-20T02:03:23.119Z,93.19
2016-07-20T02:03:53.136Z,93.01
2016-07-20T02:04:23.157Z,93.01
2016-07-20T02:05:07.350Z,93.39
2016-07-20T02:05:22.476Z,93.01
2016-07-20T02:05:53.200Z,92.62
2016-07-20T02:06:23.221Z,93.19
2016-07-20T02:06:53.225Z,93.68
2016-07-20T02:07:23.246Z,92.91
2016-07-20T02:07:53.269Z,93.29
2016-07-20T02:08:23.268Z,92.67
2016-07-20T02:08:53.294Z,92.72
2016-07-20T02:09:23.318Z,93.19
2016-07-20T02:09:53.316Z,92.81
2016-07-20T02:10:22.632Z,93.49
2016-07-20T02:10:53.349Z,93.29
2016-07-20T02:11:23.380Z,92.91
2016-07-20T02:11:53.379Z,92.81
2016-07-20T02:12:23.406Z,93.01
2016-07-20T02:12:53.408Z,93.1
2016-07-20T02:13:23.419Z,93.01
2016-07-20T02:13:53.443Z,93.58
2016-07-20T02:14:23.455Z,93.39
2016-07-20T02:14:53.469Z,93.39
2016-07-20T02:15:23.498Z,93.77
2016-07-20T02:15:53.502Z,93.87
2016-07-20T02:16:23.517Z,93.87
2016-07-20T02:16:53.539Z,93.87
2016-07-20T02:17:23.550Z,93.73
2016-07-20T02:17:52.848Z,93.54
2016-07-20T02:18:23.574Z,94.31
2016-07-20T02:18:53.591Z,94.31
2016-07-20T02:19:22.902Z,94.49
2016-07-20T02:19:53.617Z,94.98
2016-07-20T02:20:22.231Z,94.16
2016-07-20T02:20:53.655Z,93.82
2016-07-20T02:21:23.679Z,93.87
2016-07-20T02:21:53.680Z,94.01
2016-07-20T02:22:23.699Z,93.77
2016-07-20T02:22:53.724Z,94.21
2016-07-20T02:23:23.726Z,93.96
2016-07-20T02:23:53.749Z,93.96
2016-07-20T02:24:23.772Z,93.29
2016-07-20T02:24:53.770Z,93.01
2016-07-20T02:25:23.782Z,93.01
2016-07-20T02:25:53.099Z,93.01
2016-07-20T02:26:23.812Z,93.49
2016-07-20T02:26:53.840Z,93.49
2016-07-20T02:27:23.853Z,93.39
2016-07-20T02:27:53.865Z,93.68
2016-07-20T02:28:23.887Z,93.58
2016-07-20T02:28:53.895Z,93.87
2016-07-20T02:29:23.920Z,93.39
2016-07-20T02:29:53.922Z,94.45
2016-07-20T02:30:23.231Z,93.87
2016-07-20T02:30:53.244Z,93.49
2016-07-20T02:31:23.970Z,93.39
2016-07-20T02:31:53.994Z,93.58
2016-07-20T02:32:24.012Z,93.39
2016-07-20T02:32:54.021Z,93.49
2016-07-20T02:33:24.036Z,93.58
2016-07-20T02:33:53.338Z,93.49
2016-07-20T02:34:24.063Z,93.49
2016-07-20T02:34:54.072Z,93.96
2016-07-20T02:35:24.096Z,93.58
2016-07-20T02:35:54.105Z,94.06
2016-07-20T02:36:23.412Z,93.58
2016-07-20T02:36:54.141Z,93.77
2016-07-20T02:37:23.444Z,93.77
2016-07-20T02:37:54.163Z,93.87
2016-07-20T02:38:24.182Z,93.49
2016-07-20T02:38:53.492Z,94.06
2016-07-20T02:39:23.503Z,93.77
2016-07-20T02:39:54.234Z,93.92
2016-07-20T02:40:24.245Z,94.06
2016-07-20T02:40:54.251Z,94.4
2016-07-20T02:41:24.274Z,94.59
2016-07-20T02:41:54.292Z,94.11
2016-07-20T02:42:24.301Z,94.49
2016-07-20T02:42:54.324Z,94.59
2016-07-20T02:43:24.335Z,94.88
2016-07-20T02:43:54.351Z,94.78
2016-07-20T02:44:24.363Z,94.59
2016-07-20T02:44:54.376Z,94.69
2016-07-20T02:45:24.403Z,94.69
2016-07-20T02:45:54.410Z,95.26
2016-07-20T02:46:24.425Z,95.36
2016-07-20T02:46:54.445Z,94.49
2016-07-20T02:47:24.457Z,94.88
2016-07-20T02:47:54.472Z,93.96
2016-07-20T02:48:24.488Z,94.26
2016-07-20T02:48:54.503Z,94.01
2016-07-20T02:49:24.508Z,94.01
2016-07-20T02:49:54.532Z,93.92
2016-07-20T02:50:24.551Z,93.82
2016-07-20T02:50:54.562Z,93.92
2016-07-20T02:51:24.581Z,94.69
2016-07-20T02:51:54.595Z,94.59
2016-07-20T02:52:24.607Z,94.11
2016-07-20T02:52:54.621Z,94.69
2016-07-20T02:53:24.635Z,94.69
2016-07-20T02:53:54.653Z,94.78
2016-07-20T02:54:24.667Z,94.88
2016-07-20T02:54:54.702Z,94.69
2016-07-20T02:55:24.698Z,94.59
2016-07-20T02:55:54.714Z,94.88
2016-07-20T02:56:24.732Z,94.78
2016-07-20T02:56:54.045Z,95.26
2016-07-20T02:57:24.761Z,95.36
2016-07-20T02:57:54.771Z,95.07
2016-07-20T02:58:24.787Z,94.88
2016-07-20T02:58:54.807Z,94.69
2016-07-20T02:59:24.812Z,94.78
2016-07-20T02:59:54.854Z,94.59
2016-07-20T03:00:24.162Z,94.59
2016-07-20T03:00:54.866Z,94.21
2016-07-20T03:01:24.880Z,94.06
2016-07-20T03:01:54.896Z,93.82
2016-07-20T03:02:24.914Z,93.77
2016-07-20T03:02:54.922Z,94.01
2016-07-20T03:03:24.442Z,93.87
2016-07-20T03:03:54.959Z,94.26
2016-07-20T03:04:23.549Z,94.16
2016-07-20T03:04:54.983Z,93.68
2016-07-20T03:05:24.294Z,94.16
2016-07-20T03:05:55.014Z,94.06
2016-07-20T03:06:24.316Z,93.87
2016-07-20T03:06:55.050Z,93.77
2016-07-20T03:07:25.059Z,93.58
2016-07-20T03:07:55.074Z,93.58
2016-07-20T03:08:25.090Z,93.58
2016-07-20T03:08:55.121Z,93.68
2016-07-20T03:09:25.115Z,93.68
2016-07-20T03:09:54.418Z,93.58
2016-07-20T03:10:25.153Z,93.68
2016-07-20T03:10:55.173Z,94.06
2016-07-20T03:11:24.470Z,93.39
2016-07-20T03:11:55.214Z,93.68
2016-07-20T03:12:23.791Z,93.68
2016-07-20T03:12:55.223Z,93.96
2016-07-20T03:13:25.256Z,93.58
2016-07-20T03:13:55.258Z,93.77
2016-07-20T03:14:25.271Z,93.58
2016-07-20T03:14:54.578Z,93.58
2016-07-20T03:15:25.299Z,93.58
2016-07-20T03:15:54.605Z,93.49
2016-07-20T03:16:24.614Z,93.77
2016-07-20T03:16:54.636Z,93.49
2016-07-20T03:17:25.371Z,93.29
2016-07-20T03:17:55.378Z,93.87
2016-07-20T03:18:25.388Z,93.96
2016-07-20T03:18:55.406Z,93.96
2016-07-20T03:19:25.415Z,93.49
2016-07-20T03:19:55.445Z,93.58
2016-07-20T03:20:25.458Z,93.1
2016-07-20T03:20:54.764Z,93.49
2016-07-20T03:21:25.485Z,93.19
2016-07-20T03:21:55.510Z,93.58
2016-07-20T03:22:24.801Z,93.68
2016-07-20T03:22:55.530Z,93.1
2016-07-20T03:23:25.544Z,92.62
2016-07-20T03:23:55.565Z,93.01
2016-07-20T03:24:25.573Z,93.49
2016-07-20T03:24:55.586Z,93.19
2016-07-20T03:25:25.606Z,92.62
2016-07-20T03:25:54.909Z,93.29
2016-07-20T03:26:25.637Z,93.39
2016-07-20T03:26:54.947Z,93.39
2016-07-20T03:27:25.659Z,93.58
2016-07-20T03:27:55.678Z,93.29
2016-07-20T03:28:24.986Z,93.58
2016-07-20T03:28:55.704Z,93.96
2016-07-20T03:29:25.726Z,93.77
2016-07-20T03:29:55.746Z,93.77
2016-07-20T03:30:25.748Z,93.77
2016-07-20T03:30:55.780Z,93.96
2016-07-20T03:31:25.786Z,93.96
2016-07-20T03:31:55.805Z,94.16
2016-07-20T03:32:25.824Z,93.19
2016-07-20T03:32:55.828Z,93.39
2016-07-20T03:33:25.854Z,93.68
2016-07-20T03:33:55.858Z,93.96
2016-07-20T03:34:24.454Z,93.68
2016-07-20T03:34:55.189Z,94.16
2016-07-20T03:35:25.905Z,93.39
2016-07-20T03:35:55.921Z,93.25
2016-07-20T03:36:25.945Z,94.26
2016-07-20T03:36:55.244Z,94.26
2016-07-20T03:37:25.257Z,93.82
2016-07-20T03:37:55.998Z,93.96
2016-07-20T03:38:25.994Z,93.87
2016-07-20T03:38:56.025Z,93.96
2016-07-20T03:39:26.029Z,93.68
2016-07-20T03:39:55.334Z,93.58
2016-07-20T03:40:25.354Z,93.58
2016-07-20T03:40:55.370Z,93.39
2016-07-20T03:41:26.094Z,93.29
2016-07-20T03:41:56.109Z,93.39
2016-07-20T03:42:26.120Z,93.87
2016-07-20T03:42:56.142Z,94.16
2016-07-20T03:43:26.155Z,93.63
2016-07-20T03:43:56.165Z,93.68
2016-07-20T03:44:26.177Z,93.77
2016-07-20T03:44:56.186Z,93.77
2016-07-20T03:45:25.500Z,93.58
2016-07-20T03:45:56.228Z,93.96
2016-07-20T03:46:26.241Z,94.16
2016-07-20T03:46:56.258Z,94.16
2016-07-20T03:47:26.265Z,94.06
2016-07-20T03:47:56.287Z,94.54
2016-07-20T03:48:26.301Z,94.01
2016-07-20T03:48:56.314Z,93.87
2016-07-20T03:49:26.326Z,94.21
2016-07-20T03:49:56.351Z,94.54
2016-07-20T03:50:26.360Z,93.54
2016-07-20T03:50:56.369Z,93.73
2016-07-20T03:51:26.396Z,94.31
2016-07-20T03:51:56.426Z,93.73
2016-07-20T03:52:25.704Z,94.88
2016-07-20T03:52:56.445Z,94.78
2016-07-20T03:53:26.458Z,94.11
2016-07-20T03:53:56.466Z,94.26
2016-07-20T03:54:26.482Z,93.68
2016-07-20T03:54:55.789Z,94.54
2016-07-20T03:55:26.506Z,94.26
2016-07-20T03:55:56.530Z,93.68
2016-07-20T03:56:26.540Z,93.68
2016-07-20T03:56:56.561Z,94.16
2016-07-20T03:57:26.576Z,93.77
2016-07-20T03:57:56.587Z,93.77
2016-07-20T03:58:26.612Z,93.68
2016-07-20T03:58:56.616Z,94.16
2016-07-20T03:59:26.637Z,93.29
2016-07-20T03:59:56.649Z,93.49
2016-07-20T04:00:26.672Z,92.91
2016-07-20T04:00:56.682Z,92.96
2016-07-20T04:01:26.705Z,91.9
2016-07-20T04:01:56.710Z,91.9
2016-07-20T04:02:26.729Z,91.71
2016-07-20T04:02:56.030Z,92.09
2016-07-20T04:03:26.756Z,91.8
2016-07-20T04:03:56.772Z,91.22
2016-07-20T04:04:26.785Z,91.08
2016-07-20T04:04:54.675Z,89.92
2016-07-20T04:05:40.997Z,89.68
2016-07-20T04:05:56.828Z,89.68
2016-07-20T04:06:25.426Z,89.44
2016-07-20T04:06:56.855Z,89.83
2016-07-20T04:07:26.869Z,89.73
2016-07-20T04:07:56.896Z,89.25
2016-07-20T04:08:26.910Z,89.64
2016-07-20T04:08:56.926Z,89.92
2016-07-20T04:09:26.941Z,89.25
2016-07-20T04:09:56.957Z,90.41
2016-07-20T04:10:26.968Z,89.44
2016-07-20T04:10:56.982Z,89.64
2016-07-20T04:11:26.996Z,90.21
2016-07-20T04:11:56.310Z,90.45
2016-07-20T04:12:27.031Z,90.12
2016-07-20T04:12:57.043Z,90.07
2016-07-20T04:13:27.058Z,90.45
2016-07-20T04:13:57.066Z,91.03
2016-07-20T04:14:27.093Z,90.75
2016-07-20T04:14:56.391Z,90.65
2016-07-20T04:15:27.120Z,90.45
2016-07-20T04:15:57.133Z,90.65
2016-07-20T04:16:27.157Z,91.22
2016-07-20T04:16:56.453Z,90.65
2016-07-20T04:17:27.176Z,90.94
2016-07-20T04:17:57.187Z,89.98
2016-07-20T04:18:27.220Z,90.55
2016-07-20T04:18:56.511Z,90.21
2016-07-20T04:19:27.239Z,89.92
2016-07-20T04:19:57.257Z,89.92
2016-07-20T04:20:27.273Z,90.12
2016-07-20T04:20:57.279Z,90.5
2016-07-20T04:21:27.301Z,90.02
2016-07-20T04:21:57.317Z,90.12
2016-07-20T04:22:27.330Z,90.12
2016-07-20T04:22:57.343Z,90.02
2016-07-20T04:23:27.364Z,90.79
2016-07-20T04:23:56.670Z,90.75
2016-07-20T04:24:27.388Z,90.94
2016-07-20T04:24:57.416Z,90.59
2016-07-20T04:25:27.429Z,90.65
2016-07-20T04:25:57.429Z,90.5
2016-07-20T04:26:27.452Z,90.59
2016-07-20T04:26:57.476Z,90.45
2016-07-20T04:27:27.488Z,90.02
2016-07-20T04:27:57.496Z,89.92
2016-07-20T04:28:27.516Z,89.73
2016-07-20T04:28:57.523Z,89.54
2016-07-20T04:29:27.550Z,89.83
2016-07-20T04:29:57.570Z,89.83
2016-07-20T04:30:27.573Z,89.64
2016-07-20T04:30:57.585Z,89.54
2016-07-20T04:31:27.617Z,90.02
2016-07-20T04:31:57.632Z,89.35
2016-07-20T04:32:27.640Z,89.73
2016-07-20T04:32:57.649Z,89.54
2016-07-20T04:33:27.667Z,89.83
2016-07-20T04:33:57.682Z,89.64
2016-07-20T04:34:27.697Z,89.73
2016-07-20T04:34:57.707Z,90.06
2016-07-20T04:35:27.736Z,89.54
2016-07-20T04:35:57.738Z,88.77
2016-07-20T04:36:27.757Z,89.01
2016-07-20T04:36:57.770Z,89.15
2016-07-20T04:37:27.782Z,89.2
2016-07-20T04:37:57.802Z,89.25
2016-07-20T04:38:27.834Z,88.67
2016-07-20T04:38:57.836Z,88.71
2016-07-20T04:39:27.141Z,88.81
2016-07-20T04:39:57.870Z,88.81
2016-07-20T04:40:27.881Z,88.81
2016-07-20T04:40:57.894Z,88.71
2016-07-20T04:41:27.911Z,88.43
2016-07-20T04:41:57.930Z,88.62
2016-07-20T04:42:27.942Z,88.71
2016-07-20T04:42:57.958Z,88.43
2016-07-20T04:43:27.971Z,88.53
2016-07-20T04:43:57.991Z,87.95
2016-07-20T04:44:28.008Z,87.95
2016-07-20T04:44:58.021Z,87.66
2016-07-20T04:45:28.043Z,87.76
2016-07-20T04:45:57.340Z,87.46
2016-07-20T04:46:28.070Z,88.33
2016-07-20T04:46:58.100Z,87.66
2016-07-20T04:47:28.093Z,88.04
2016-07-20T04:47:58.108Z,87.85
2016-07-20T04:48:28.120Z,87.66
2016-07-20T04:48:58.145Z,88.14
2016-07-20T04:49:28.153Z,88.14
2016-07-20T04:49:58.172Z,87.95
2016-07-20T04:50:28.189Z,87.12
2016-07-20T04:50:58.201Z,87.12
2016-07-20T04:51:28.209Z,87.41
2016-07-20T04:51:57.527Z,87.32
2016-07-20T04:52:28.262Z,87.6
2016-07-20T04:52:57.547Z,87.7
2016-07-20T04:53:28.278Z,87.7
2016-07-20T04:53:58.295Z,88.47
2016-07-20T04:54:28.307Z,87.8
2016-07-20T04:54:58.317Z,88.67
2016-07-20T04:55:27.628Z,88.09
2016-07-20T04:55:58.360Z,87.7
2016-07-20T04:56:28.367Z,87.03
2016-07-20T04:56:58.386Z,86.74
2016-07-20T04:57:28.412Z,86.74
2016-07-20T04:57:58.415Z,86.93
2016-07-20T04:58:28.428Z,86.65
2016-07-20T04:58:58.445Z,87.32
2016-07-20T04:59:27.753Z,87.03
2016-07-20T04:59:58.476Z,86.93
2016-07-20T05:00:28.490Z,86.35
2016-07-20T05:00:58.514Z,86.55
2016-07-20T05:01:28.519Z,86.16
2016-07-20T05:01:58.540Z,86.83
2016-07-20T05:02:28.567Z,86.55
2016-07-20T05:02:57.855Z,86.45
2016-07-20T05:03:28.582Z,86.07
2016-07-20T05:03:58.602Z,86.59
2016-07-20T05:04:28.624Z,86.21
2016-07-20T05:04:58.633Z,85.97
2016-07-20T05:05:28.656Z,86.49
2016-07-20T05:05:58.661Z,86.26
2016-07-20T05:06:28.676Z,85.63
2016-07-20T05:06:58.693Z,86.01
2016-07-20T05:07:28.714Z,85.72
2016-07-20T05:07:58.743Z,85.34
2016-07-20T05:08:28.752Z,85.43
2016-07-20T05:08:58.759Z,85.82
2016-07-20T05:09:28.775Z,86.4
2016-07-20T05:09:58.780Z,86.49
2016-07-20T05:10:28.813Z,86.4
2016-07-20T05:10:58.113Z,86.11
2016-07-20T05:11:28.835Z,85.34
2016-07-20T05:11:58.849Z,85.43
2016-07-20T05:12:28.861Z,85.82
2016-07-20T05:12:58.883Z,85.82
2016-07-20T05:13:28.890Z,85.14
2016-07-20T05:13:58.903Z,85.05
2016-07-20T05:14:28.216Z,84.76
2016-07-20T05:14:58.939Z,85.19
2016-07-20T05:15:28.964Z,85.24
2016-07-20T05:15:58.263Z,85.05
2016-07-20T05:16:28.278Z,84.66
2016-07-20T05:16:59.000Z,84.8
2016-07-20T05:17:28.306Z,84.7
2016-07-20T05:17:59.042Z,84.7
2016-07-20T05:18:29.044Z,84.38
2016-07-20T05:18:59.059Z,84.52
2016-07-20T05:19:29.076Z,84.18
2016-07-20T05:19:59.099Z,84.47
2016-07-20T05:20:29.114Z,84.8
2016-07-20T05:20:59.138Z,85.09
2016-07-20T05:21:29.146Z,84.42
2016-07-20T05:21:57.749Z,83.94
2016-07-20T05:22:29.180Z,84.61
2016-07-20T05:22:59.190Z,84.99
2016-07-20T05:23:29.206Z,84.42
2016-07-20T05:23:59.222Z,84.8
2016-07-20T05:24:29.232Z,84.32
2016-07-20T05:24:59.250Z,84.12
2016-07-20T05:25:29.271Z,84.32
2016-07-20T05:25:59.285Z,84.12
2016-07-20T05:26:29.300Z,83.94
2016-07-20T05:26:58.601Z,83.55
2016-07-20T05:27:29.324Z,83.45
2016-07-20T05:27:59.347Z,84.03
2016-07-20T05:28:29.361Z,83.74
2016-07-20T05:28:59.371Z,83.94
2016-07-20T05:29:29.391Z,82.68
2016-07-20T05:29:59.400Z,82.49
2016-07-20T05:30:28.709Z,82.49
2016-07-20T05:30:58.735Z,82.34
2016-07-20T05:31:29.476Z,82.39
2016-07-20T05:31:58.755Z,82.29
2016-07-20T05:32:29.484Z,81.95
2016-07-20T05:32:59.504Z,82.34
2016-07-20T05:33:29.519Z,81.85
2016-07-20T05:33:58.820Z,82.24
2016-07-20T05:34:29.566Z,81.57
2016-07-20T05:34:58.858Z,82.14
2016-07-20T05:35:28.164Z,82.34
2016-07-20T05:35:59.600Z,82.05
2016-07-20T05:36:29.615Z,81.76
2016-07-20T05:36:59.620Z,82.53
2016-07-20T05:37:29.643Z,82.24
2016-07-20T05:37:59.661Z,82.34
2016-07-20T05:38:29.679Z,81.85
2016-07-20T05:38:59.690Z,81.85
2016-07-20T05:39:29.708Z,82.14
2016-07-20T05:39:59.715Z,82.05
2016-07-20T05:40:29.739Z,81.95
2016-07-20T05:40:59.766Z,81.66
2016-07-20T05:41:29.765Z,81.85
2016-07-20T05:41:59.775Z,81.95
2016-07-20T05:42:29.804Z,81.99
2016-07-20T05:42:59.814Z,81.85
2016-07-20T05:43:29.116Z,81.41
2016-07-20T05:43:58.429Z,81.51
2016-07-20T05:44:29.875Z,81.41
2016-07-20T05:44:59.163Z,80.83
2016-07-20T05:45:29.896Z,80.74
2016-07-20T05:45:59.940Z,80.35
2016-07-20T05:46:29.943Z,80.45
2016-07-20T05:46:59.937Z,80.64
2016-07-20T05:47:29.951Z,80.64
2016-07-20T05:47:59.982Z,81.12
2016-07-20T05:48:29.990Z,80.64
2016-07-20T05:49:00.014Z,80.16
2016-07-20T05:49:30.022Z,80.45
2016-07-20T05:50:00.034Z,80.54
2016-07-20T05:50:30.053Z,80.83
2016-07-20T05:51:00.071Z,80.74
2016-07-20T05:51:30.081Z,80.74
2016-07-20T05:52:00.092Z,79.97
2016-07-20T05:52:30.110Z,79.91
2016-07-20T05:53:00.122Z,79.77
2016-07-20T05:53:29.437Z,79.97
2016-07-20T05:54:00.162Z,79.68
2016-07-20T05:54:30.171Z,79.81
2016-07-20T05:54:59.483Z,79.19
2016-07-20T05:55:29.502Z,79.62
2016-07-20T05:56:00.245Z,79.91
2016-07-20T05:56:30.234Z,80.2
2016-07-20T05:57:00.265Z,79.33
2016-07-20T05:57:29.564Z,80
2016-07-20T05:58:00.282Z,79.33
2016-07-20T05:58:30.318Z,78.94
2016-07-20T05:58:59.613Z,79.24
2016-07-20T05:59:30.333Z,78.85
2016-07-20T06:00:00.354Z,78.75
2016-07-20T06:00:29.660Z,78.75
2016-07-20T06:01:00.374Z,78.75
2016-07-20T06:01:30.408Z,78.66
2016-07-20T06:02:00.415Z,78.36
2016-07-20T06:02:30.439Z,78.27
2016-07-20T06:03:00.442Z,78.56
2016-07-20T06:03:30.469Z,78.27
2016-07-20T06:04:00.487Z,78.11
2016-07-20T06:04:30.494Z,78.27
2016-07-20T06:05:00.517Z,78.41
2016-07-20T06:05:30.523Z,78.41
2016-07-20T06:05:59.828Z,77.92
2016-07-20T06:06:30.566Z,78.41
2016-07-20T06:07:00.576Z,78.31
2016-07-20T06:07:30.602Z,77.44
2016-07-20T06:08:00.604Z,77.53
2016-07-20T06:08:30.623Z,77.63
2016-07-20T06:09:00.639Z,78.02
2016-07-20T06:09:29.939Z,78.59
2016-07-20T06:10:00.668Z,79.56
2016-07-20T06:10:30.678Z,79.85
2016-07-20T06:11:00.692Z,78.21
2016-07-20T06:11:30.713Z,77.92
2016-07-20T06:12:00.741Z,77.92
2016-07-20T06:12:30.737Z,78.59
2016-07-20T06:13:00.764Z,78.02
2016-07-20T06:13:30.779Z,77.53
2016-07-20T06:14:00.793Z,78.54
2016-07-20T06:14:29.385Z,77.67
2016-07-20T06:15:00.826Z,78.44
2016-07-20T06:15:30.132Z,78.54
2016-07-20T06:16:00.868Z,78.15
2016-07-20T06:16:30.883Z,77.48
2016-07-20T06:17:00.893Z,76.8
2016-07-20T06:17:30.908Z,77.09
2016-07-20T06:18:00.916Z,77
2016-07-20T06:18:30.938Z,76.8
2016-07-20T06:19:00.949Z,77.57
2016-07-20T06:19:30.975Z,77.96
2016-07-20T06:20:00.984Z,77.57
2016-07-20T06:20:30.998Z,77.09
2016-07-20T06:21:01.026Z,77
2016-07-20T06:21:31.043Z,75.54
2016-07-20T06:22:01.047Z,75.64
2016-07-20T06:22:31.059Z,74.77
2016-07-20T06:23:01.078Z,75.84
2016-07-20T06:23:31.099Z,75.68
2016-07-20T06:24:01.112Z,75.97
2016-07-20T06:24:31.129Z,75.68
2016-07-20T06:25:01.148Z,76.35
2016-07-20T06:25:29.741Z,75.78
2016-07-20T06:26:01.177Z,74.71
2016-07-20T06:26:31.194Z,74.42
2016-07-20T06:27:00.498Z,74.32
2016-07-20T06:27:30.513Z,74.62